Airfield :
LOGIN :

Register | Disclaimer

   EN    FR    IT 

 










Legend :    VFR   Marginal VFR   IFR   Intensive IFR   Very Intensive IFR
Visi :
Ceiling :
>= 8 km
>= 3000ft
5 to 8 km
1000 to 3000 ft
1500m to 5 km
500 to 1000 ft
800 to 1500m
200 to 500 ft
< 800m
< 200 ft
Symbols :   Thunderstorms  Fog  Heavy snow  Heavy precipitations  Wind > 20 kt
SIGMETs :     Misc.  Thunderstorms  Icing  Turbulence  Mountain Waves  Volcanic Ashes






- Airport Elevation : 124 ft
- IATA code : NHT


EGWU - RAF Northolt

CURRENT METAR :
  • 280850Z 32011KT CAVOK M00/M05 Q1007 NOSIG RMK BLU BLU

EXPIRED METARs :
  • 280820Z 33010KT CAVOK M01/M05 Q1007 NOSIG RMK BLU BLU
  • 280750Z 32008KT CAVOK M01/M05 Q1006 NOSIG
  • 280650Z 33011KT CAVOK M00/M04 Q1006 NOSIG RMK BLU BLU

TAF TAF EGWU
Valid from the 28 at 09:00 until the 29 at 03:00 UTC


280736Z 2809/2903 32012KT 9999 FEW020
PROB30
TEMPO 2818/2903 SCT010



MET'MAP, your aeronautical weather chart ! - Copyright ORBIFLY December 2007 - Disclaimer

ORBIFLY MET'MAP TEAM :

Programming & Development : Alexandra Zaïnal
Concept & original design : Baudouin d'Aumeries
Assistance for programming : Marc-Olivier Méhu
Technical & hardware support : Manuel Goepfert

Contact : metmap@orbifly.com




SOURCES & CREDITS :

   NOAA